sensor_id;sensor_type;location;lat;lon;timestamp;pressure;altitude;pressure_sealevel;temperature;humidity
25610;BME280;13479;49.044;8.716;2023-06-19T04:02:47;98759.53;;;21.49;65.63
25610;BME280;13479;49.044;8.716;2023-06-19T04:05:13;98761.00;;;21.52;65.42
25610;BME280;13479;49.044;8.716;2023-06-19T04:07:39;98752.25;;;21.56;65.38
25610;BME280;13479;49.044;8.716;2023-06-19T04:10:05;98750.84;;;21.60;65.00
25610;BME280;13479;49.044;8.716;2023-06-19T04:12:30;98753.94;;;21.64;64.94
25610;BME280;13479;49.044;8.716;2023-06-19T04:14:56;98748.34;;;21.66;64.91
25610;BME280;13479;49.044;8.716;2023-06-19T04:17:21;98745.19;;;21.69;64.85
25610;BME280;13479;49.044;8.716;2023-06-19T04:19:46;98761.19;;;21.77;64.54
25610;BME280;13479;49.044;8.716;2023-06-19T04:22:11;98762.00;;;21.84;64.02
25610;BME280;13479;49.044;8.716;2023-06-19T04:24:37;98750.78;;;21.87;63.65
25610;BME280;13479;49.044;8.716;2023-06-19T04:27:02;98758.22;;;21.99;63.01
25610;BME280;13479;49.044;8.716;2023-06-19T04:29:27;98755.28;;;22.07;62.46
25610;BME280;13479;49.044;8.716;2023-06-19T04:31:59;98749.00;;;22.13;61.95
25610;BME280;13479;49.044;8.716;2023-06-19T04:34:25;98746.28;;;22.13;61.60
25610;BME280;13479;49.044;8.716;2023-06-19T04:36:51;98734.66;;;22.13;61.46
25610;BME280;13479;49.044;8.716;2023-06-19T04:39:16;98736.97;;;22.09;61.27
25610;BME280;13479;49.044;8.716;2023-06-19T04:41:44;98747.75;;;22.16;61.16
25610;BME280;13479;49.044;8.716;2023-06-19T04:44:10;98756.00;;;22.28;61.18
25610;BME280;13479;49.044;8.716;2023-06-19T04:46:37;98770.13;;;22.43;60.48
25610;BME280;13479;49.044;8.716;2023-06-19T04:49:03;98766.91;;;22.60;60.26
25610;BME280;13479;49.044;8.716;2023-06-19T04:51:30;98765.00;;;22.67;59.73
25610;BME280;13479;49.044;8.716;2023-06-19T04:53:55;98764.88;;;22.80;59.74
25610;BME280;13479;49.044;8.716;2023-06-19T04:56:21;98775.00;;;22.92;59.14
25610;BME280;13479;49.044;8.716;2023-06-19T04:58:46;98765.09;;;23.11;58.51
25610;BME280;13479;49.044;8.716;2023-06-19T05:01:13;98768.41;;;23.20;58.25
25610;BME280;13479;49.044;8.716;2023-06-19T05:03:39;98763.31;;;23.30;57.50
25610;BME280;13479;49.044;8.716;2023-06-19T05:06:05;98758.78;;;23.24;57.55
25610;BME280;13479;49.044;8.716;2023-06-19T05:08:30;98755.56;;;23.34;57.29
25610;BME280;13479;49.044;8.716;2023-06-19T05:10:55;98764.69;;;23.39;57.53
25610;BME280;13479;49.044;8.716;2023-06-19T05:13:23;98758.97;;;23.48;56.95
25610;BME280;13479;49.044;8.716;2023-06-19T05:15:48;98762.03;;;23.58;56.79
25610;BME280;13479;49.044;8.716;2023-06-19T05:18:15;98759.63;;;23.87;56.60
25610;BME280;13479;49.044;8.716;2023-06-19T05:20:40;98765.75;;;24.69;54.74
25610;BME280;13479;49.044;8.716;2023-06-19T05:23:05;98769.53;;;25.81;52.07
25610;BME280;13479;49.044;8.716;2023-06-19T05:25:30;98766.88;;;26.80;49.13
25610;BME280;13479;49.044;8.716;2023-06-19T05:27:56;98773.63;;;27.06;48.29
25610;BME280;13479;49.044;8.716;2023-06-19T05:30:21;98768.81;;;27.13;48.04
25610;BME280;13479;49.044;8.716;2023-06-19T05:32:46;98774.13;;;27.20;47.56
25610;BME280;13479;49.044;8.716;2023-06-19T05:35:12;98768.59;;;27.88;45.83
25610;BME280;13479;49.044;8.716;2023-06-19T05:37:37;98769.69;;;28.10;45.40
25610;BME280;13479;49.044;8.716;2023-06-19T05:40:04;98767.66;;;28.22;44.53
25610;BME280;13479;49.044;8.716;2023-06-19T05:42:30;98774.28;;;28.26;44.94
25610;BME280;13479;49.044;8.716;2023-06-19T05:44:56;98782.38;;;28.21;44.74
25610;BME280;13479;49.044;8.716;2023-06-19T05:47:21;98786.34;;;28.30;44.38
25610;BME280;13479;49.044;8.716;2023-06-19T05:49:50;98784.44;;;28.58;43.51
25610;BME280;13479;49.044;8.716;2023-06-19T05:52:16;98791.97;;;28.95;42.98
25610;BME280;13479;49.044;8.716;2023-06-19T05:54:41;98797.00;;;29.09;41.99
25610;BME280;13479;49.044;8.716;2023-06-19T05:57:06;98800.41;;;28.94;42.24
25610;BME280;13479;49.044;8.716;2023-06-19T05:59:32;98797.28;;;28.58;42.73
25610;BME280;13479;49.044;8.716;2023-06-19T06:01:57;98777.00;;;28.26;44.18
25610;BME280;13479;49.044;8.716;2023-06-19T06:04:22;98769.34;;;28.06;44.94
25610;BME280;13479;49.044;8.716;2023-06-19T06:06:48;98760.34;;;27.83;44.75
25610;BME280;13479;49.044;8.716;2023-06-19T06:09:14;98762.69;;;27.74;44.88
25610;BME280;13479;49.044;8.716;2023-06-19T06:11:40;98758.09;;;27.58;45.48
25610;BME280;13479;49.044;8.716;2023-06-19T06:14:05;98765.19;;;27.59;45.76
25610;BME280;13479;49.044;8.716;2023-06-19T06:16:30;98762.13;;;27.72;45.99
25610;BME280;13479;49.044;8.716;2023-06-19T06:18:56;98788.78;;;28.10;45.03
25610;BME280;13479;49.044;8.716;2023-06-19T06:21:21;98785.50;;;28.08;45.52
25610;BME280;13479;49.044;8.716;2023-06-19T06:23:46;98801.38;;;27.94;45.52
25610;BME280;13479;49.044;8.716;2023-06-19T06:26:13;98814.25;;;27.98;44.81
25610;BME280;13479;49.044;8.716;2023-06-19T06:28:38;98806.09;;;27.98;45.69
25610;BME280;13479;49.044;8.716;2023-06-19T06:31:04;98782.47;;;27.87;45.99
25610;BME280;13479;49.044;8.716;2023-06-19T06:33:29;98778.81;;;27.98;45.68
25610;BME280;13479;49.044;8.716;2023-06-19T06:35:55;98792.53;;;28.03;45.70
25610;BME280;13479;49.044;8.716;2023-06-19T06:38:20;98792.84;;;28.07;45.33
25610;BME280;13479;49.044;8.716;2023-06-19T06:40:46;98801.13;;;28.12;45.55
25610;BME280;13479;49.044;8.716;2023-06-19T06:43:11;98812.28;;;28.33;45.24
25610;BME280;13479;49.044;8.716;2023-06-19T06:45:37;98832.31;;;28.66;44.62
25610;BME280;13479;49.044;8.716;2023-06-19T06:48:07;98848.75;;;29.21;43.23
25610;BME280;13479;49.044;8.716;2023-06-19T06:50:32;98857.09;;;30.70;40.76
25610;BME280;13479;49.044;8.716;2023-06-19T06:52:58;98876.47;;;31.58;38.98
25610;BME280;13479;49.044;8.716;2023-06-19T06:55:23;98886.53;;;32.95;36.84
25610;BME280;13479;49.044;8.716;2023-06-19T06:57:49;98910.91;;;35.08;33.51
25610;BME280;13479;49.044;8.716;2023-06-19T07:00:14;98934.94;;;37.24;30.00
25610;BME280;13479;49.044;8.716;2023-06-19T07:02:40;98947.16;;;39.12;28.04
25610;BME280;13479;49.044;8.716;2023-06-19T07:05:07;98974.34;;;41.02;25.34
25610;BME280;13479;49.044;8.716;2023-06-19T07:07:32;98993.78;;;41.74;24.08
25610;BME280;13479;49.044;8.716;2023-06-19T07:09:57;98994.25;;;42.56;23.05
25610;BME280;13479;49.044;8.716;2023-06-19T07:12:23;98995.13;;;43.34;21.70
25610;BME280;13479;49.044;8.716;2023-06-19T07:14:48;99005.16;;;44.37;20.96
25610;BME280;13479;49.044;8.716;2023-06-19T07:17:13;99005.44;;;44.80;20.38
25610;BME280;13479;49.044;8.716;2023-06-19T07:19:39;99013.38;;;44.94;20.35
25610;BME280;13479;49.044;8.716;2023-06-19T07:22:05;99015.66;;;45.24;20.01
25610;BME280;13479;49.044;8.716;2023-06-19T07:24:30;99003.22;;;45.21;19.65
25610;BME280;13479;49.044;8.716;2023-06-19T07:26:56;99005.06;;;44.17;20.67
25610;BME280;13479;49.044;8.716;2023-06-19T07:29:22;99004.81;;;41.92;22.57
25610;BME280;13479;49.044;8.716;2023-06-19T07:31:47;99008.63;;;41.66;22.83
25610;BME280;13479;49.044;8.716;2023-06-19T07:34:13;98994.69;;;40.94;23.40
25610;BME280;13479;49.044;8.716;2023-06-19T07:36:39;98989.50;;;40.83;24.05
25610;BME280;13479;49.044;8.716;2023-06-19T07:39:04;98982.09;;;40.19;24.39
25610;BME280;13479;49.044;8.716;2023-06-19T07:41:30;98975.78;;;39.30;25.11
25610;BME280;13479;49.044;8.716;2023-06-19T07:43:55;98973.41;;;38.16;26.44
25610;BME280;13479;49.044;8.716;2023-06-19T07:46:20;98978.31;;;37.01;27.81
25610;BME280;13479;49.044;8.716;2023-06-19T07:48:45;98977.94;;;36.18;28.89
25610;BME280;13479;49.044;8.716;2023-06-19T07:51:11;98976.34;;;35.27;30.20
25610;BME280;13479;49.044;8.716;2023-06-19T07:53:36;98965.44;;;34.73;30.99
25610;BME280;13479;49.044;8.716;2023-06-19T07:56:01;98958.69;;;34.31;32.00
25610;BME280;13479;49.044;8.716;2023-06-19T07:58:27;98947.75;;;34.26;31.69
25610;BME280;13479;49.044;8.716;2023-06-19T08:00:52;98944.38;;;34.05;31.57
25610;BME280;13479;49.044;8.716;2023-06-19T08:03:17;98934.63;;;33.48;31.80
25610;BME280;13479;49.044;8.716;2023-06-19T08:05:43;98933.19;;;33.11;32.63
25610;BME280;13479;49.044;8.716;2023-06-19T08:08:08;98934.28;;;33.10;32.77
25610;BME280;13479;49.044;8.716;2023-06-19T08:10:33;98937.78;;;33.66;32.76
25610;BME280;13479;49.044;8.716;2023-06-19T08:12:59;98934.09;;;34.15;31.79
25610;BME280;13479;49.044;8.716;2023-06-19T08:15:24;98940.00;;;35.58;30.06
25610;BME280;13479;49.044;8.716;2023-06-19T08:17:49;98941.16;;;37.30;27.75
25610;BME280;13479;49.044;8.716;2023-06-19T08:20:15;98944.69;;;39.02;25.47
25610;BME280;13479;49.044;8.716;2023-06-19T08:22:40;98958.06;;;40.14;24.15
25610;BME280;13479;49.044;8.716;2023-06-19T08:25:06;98965.41;;;40.57;23.51
25610;BME280;13479;49.044;8.716;2023-06-19T08:27:31;98975.56;;;40.53;23.41
25610;BME280;13479;49.044;8.716;2023-06-19T08:29:57;98983.03;;;40.32;23.76
25610;BME280;13479;49.044;8.716;2023-06-19T08:32:22;98985.09;;;39.52;24.51
25610;BME280;13479;49.044;8.716;2023-06-19T08:34:47;98992.59;;;39.60;24.43
25610;BME280;13479;49.044;8.716;2023-06-19T08:37:13;98983.28;;;39.47;25.05
25610;BME280;13479;49.044;8.716;2023-06-19T08:39:38;98983.47;;;38.75;25.84
25610;BME280;13479;49.044;8.716;2023-06-19T08:42:08;98981.22;;;37.69;27.08
25610;BME280;13479;49.044;8.716;2023-06-19T08:44:35;98974.56;;;37.93;26.71
25610;BME280;13479;49.044;8.716;2023-06-19T08:47:04;98961.28;;;38.35;26.60
25610;BME280;13479;49.044;8.716;2023-06-19T08:49:30;98954.16;;;38.92;25.93
25610;BME280;13479;49.044;8.716;2023-06-19T08:51:56;98965.78;;;39.99;25.06
25610;BME280;13479;49.044;8.716;2023-06-19T08:54:22;98975.19;;;40.25;24.63
25610;BME280;13479;49.044;8.716;2023-06-19T08:56:48;98982.63;;;39.68;25.29
25610;BME280;13479;49.044;8.716;2023-06-19T08:59:14;98977.19;;;40.07;25.25
25610;BME280;13479;49.044;8.716;2023-06-19T09:01:49;98984.81;;;40.27;24.83
25610;BME280;13479;49.044;8.716;2023-06-19T09:04:20;98999.16;;;40.47;24.14
25610;BME280;13479;49.044;8.716;2023-06-19T09:06:52;99014.75;;;40.78;23.95
25610;BME280;13479;49.044;8.716;2023-06-19T09:09:22;99006.66;;;39.55;25.02
25610;BME280;13479;49.044;8.716;2023-06-19T09:14:51;98988.81;;;39.21;25.37
25610;BME280;13479;49.044;8.716;2023-06-19T09:17:20;98987.53;;;38.06;27.25
25610;BME280;13479;49.044;8.716;2023-06-19T09:19:50;98982.41;;;36.89;28.81
25610;BME280;13479;49.044;8.716;2023-06-19T09:22:17;98995.81;;;35.55;30.33
25610;BME280;13479;49.044;8.716;2023-06-19T09:24:45;98974.09;;;34.61;31.92
25610;BME280;13479;49.044;8.716;2023-06-19T09:27:17;98970.06;;;34.24;32.58
25610;BME280;13479;49.044;8.716;2023-06-19T09:29:48;98953.28;;;34.21;32.95
25610;BME280;13479;49.044;8.716;2023-06-19T09:32:21;98941.88;;;34.32;33.04
25610;BME280;13479;49.044;8.716;2023-06-19T09:34:48;98939.72;;;35.02;31.49
25610;BME280;13479;49.044;8.716;2023-06-19T09:37:21;98933.88;;;35.80;30.43
25610;BME280;13479;49.044;8.716;2023-06-19T09:39:59;98943.25;;;36.12;30.58
25610;BME280;13479;49.044;8.716;2023-06-19T09:42:32;98945.97;;;36.59;29.78
25610;BME280;13479;49.044;8.716;2023-06-19T09:45:02;98947.47;;;37.67;28.55
25610;BME280;13479;49.044;8.716;2023-06-19T09:50:01;98958.97;;;39.27;26.25
25610;BME280;13479;49.044;8.716;2023-06-19T09:52:29;98975.41;;;39.93;25.87
25610;BME280;13479;49.044;8.716;2023-06-19T09:54:55;98971.34;;;40.47;24.84
25610;BME280;13479;49.044;8.716;2023-06-19T09:57:23;98966.88;;;40.55;24.82
25610;BME280;13479;49.044;8.716;2023-06-19T09:59:54;98965.56;;;40.22;25.43
25610;BME280;13479;49.044;8.716;2023-06-19T10:02:22;98966.25;;;40.02;25.70
25610;BME280;13479;49.044;8.716;2023-06-19T10:04:52;98968.34;;;40.13;25.23
25610;BME280;13479;49.044;8.716;2023-06-19T10:07:20;98967.16;;;40.32;25.00
25610;BME280;13479;49.044;8.716;2023-06-19T10:10:24;98974.03;;;40.73;24.69
25610;BME280;13479;49.044;8.716;2023-06-19T10:12:50;98976.13;;;40.76;24.70
25610;BME280;13479;49.044;8.716;2023-06-19T10:15:27;98970.50;;;40.85;24.74
25610;BME280;13479;49.044;8.716;2023-06-19T10:18:05;98976.47;;;40.75;24.68
25610;BME280;13479;49.044;8.716;2023-06-19T10:20:35;98965.25;;;40.54;24.48
25610;BME280;13479;49.044;8.716;2023-06-19T10:23:19;98967.25;;;40.44;24.36
25610;BME280;13479;49.044;8.716;2023-06-19T10:25:47;98961.00;;;40.09;24.87
25610;BME280;13479;49.044;8.716;2023-06-19T10:30:52;98947.59;;;40.02;25.10
25610;BME280;13479;49.044;8.716;2023-06-19T10:33:18;98941.63;;;39.56;25.76
25610;BME280;13479;49.044;8.716;2023-06-19T10:35:43;98930.34;;;39.26;26.18
25610;BME280;13479;49.044;8.716;2023-06-19T10:38:09;98928.63;;;38.72;26.40
25610;BME280;13479;49.044;8.716;2023-06-19T10:40:37;98918.53;;;38.27;27.41
25610;BME280;13479;49.044;8.716;2023-06-19T10:43:03;98914.91;;;37.64;28.36
25610;BME280;13479;49.044;8.716;2023-06-19T10:45:29;98908.25;;;37.28;28.49
25610;BME280;13479;49.044;8.716;2023-06-19T10:47:55;98904.38;;;36.78;29.40
25610;BME280;13479;49.044;8.716;2023-06-19T10:50:21;98894.38;;;36.55;29.96
25610;BME280;13479;49.044;8.716;2023-06-19T10:52:46;98896.91;;;36.37;30.10
25610;BME280;13479;49.044;8.716;2023-06-19T10:55:13;98890.16;;;36.29;30.26
25610;BME280;13479;49.044;8.716;2023-06-19T10:57:46;98879.59;;;36.31;30.41
25610;BME280;13479;49.044;8.716;2023-06-19T11:00:25;98874.91;;;36.18;30.39
25610;BME280;13479;49.044;8.716;2023-06-19T11:02:50;98872.56;;;35.97;30.71
25610;BME280;13479;49.044;8.716;2023-06-19T11:05:16;98873.16;;;35.94;30.76
25610;BME280;13479;49.044;8.716;2023-06-19T11:07:41;98872.75;;;36.29;30.04
25610;BME280;13479;49.044;8.716;2023-06-19T11:10:07;98869.38;;;36.74;29.54
25610;BME280;13479;49.044;8.716;2023-06-19T11:12:33;98877.78;;;37.05;29.14
25610;BME280;13479;49.044;8.716;2023-06-19T11:15:03;98888.84;;;37.05;28.78
25610;BME280;13479;49.044;8.716;2023-06-19T11:17:29;98894.66;;;37.18;28.56
25610;BME280;13479;49.044;8.716;2023-06-19T11:19:57;98882.66;;;37.22;28.57
25610;BME280;13479;49.044;8.716;2023-06-19T11:22:35;98896.28;;;36.82;29.23
25610;BME280;13479;49.044;8.716;2023-06-19T11:25:05;98883.50;;;36.30;29.86
25610;BME280;13479;49.044;8.716;2023-06-19T11:27:31;98879.81;;;35.93;30.62
25610;BME280;13479;49.044;8.716;2023-06-19T11:30:00;98862.13;;;35.61;30.60
25610;BME280;13479;49.044;8.716;2023-06-19T11:32:52;98858.44;;;35.52;31.18
25610;BME280;13479;49.044;8.716;2023-06-19T11:35:17;98857.16;;;35.25;31.52
25610;BME280;13479;49.044;8.716;2023-06-19T11:37:43;98859.50;;;34.99;31.89
25610;BME280;13479;49.044;8.716;2023-06-19T11:40:11;98853.06;;;34.84;32.47
25610;BME280;13479;49.044;8.716;2023-06-19T11:42:47;98853.81;;;34.90;32.51
25610;BME280;13479;49.044;8.716;2023-06-19T11:45:13;98843.66;;;34.66;32.47
25610;BME280;13479;49.044;8.716;2023-06-19T11:47:39;98845.00;;;34.49;33.45
25610;BME280;13479;49.044;8.716;2023-06-19T11:50:05;98842.63;;;34.38;33.01
25610;BME280;13479;49.044;8.716;2023-06-19T11:52:30;98832.31;;;34.24;33.27
25610;BME280;13479;49.044;8.716;2023-06-19T11:54:56;98831.06;;;34.16;32.95
25610;BME280;13479;49.044;8.716;2023-06-19T11:57:21;98837.59;;;34.21;33.11
25610;BME280;13479;49.044;8.716;2023-06-19T11:59:46;98823.19;;;34.05;33.52
25610;BME280;13479;49.044;8.716;2023-06-19T12:02:12;98820.75;;;34.03;33.05
25610;BME280;13479;49.044;8.716;2023-06-19T12:04:37;98817.50;;;33.96;32.33
25610;BME280;13479;49.044;8.716;2023-06-19T12:07:03;98821.97;;;33.92;32.86
25610;BME280;13479;49.044;8.716;2023-06-19T12:09:29;98816.47;;;33.86;33.70
25610;BME280;13479;49.044;8.716;2023-06-19T12:11:54;98825.53;;;33.63;33.92
25610;BME280;13479;49.044;8.716;2023-06-19T12:14:20;98819.75;;;33.30;34.72
25610;BME280;13479;49.044;8.716;2023-06-19T12:16:46;98809.66;;;33.20;34.07
25610;BME280;13479;49.044;8.716;2023-06-19T12:19:11;98800.59;;;33.19;34.17
25610;BME280;13479;49.044;8.716;2023-06-19T12:21:37;98800.13;;;33.07;34.43
25610;BME280;13479;49.044;8.716;2023-06-19T12:24:02;98793.53;;;33.08;34.79
25610;BME280;13479;49.044;8.716;2023-06-19T12:26:27;98801.28;;;33.01;34.78
25610;BME280;13479;49.044;8.716;2023-06-19T12:28:53;98800.72;;;33.04;34.58
25610;BME280;13479;49.044;8.716;2023-06-19T12:31:18;98793.56;;;33.03;34.89
25610;BME280;13479;49.044;8.716;2023-06-19T12:33:44;98790.44;;;33.15;34.97
25610;BME280;13479;49.044;8.716;2023-06-19T12:36:12;98796.44;;;33.22;34.97
25610;BME280;13479;49.044;8.716;2023-06-19T12:38:41;98796.09;;;33.29;34.17
25610;BME280;13479;49.044;8.716;2023-06-19T12:41:06;98790.88;;;33.32;34.06
25610;BME280;13479;49.044;8.716;2023-06-19T12:43:32;98803.72;;;33.42;33.48
25610;BME280;13479;49.044;8.716;2023-06-19T12:45:58;98801.59;;;33.63;34.30
25610;BME280;13479;49.044;8.716;2023-06-19T12:48:25;98780.25;;;33.50;34.69
25610;BME280;13479;49.044;8.716;2023-06-19T12:50:50;98781.16;;;33.40;34.96
25610;BME280;13479;49.044;8.716;2023-06-19T12:53:16;98785.16;;;33.23;35.08
25610;BME280;13479;49.044;8.716;2023-06-19T12:55:41;98778.22;;;32.96;35.56
25610;BME280;13479;49.044;8.716;2023-06-19T12:58:07;98787.63;;;32.90;36.00
25610;BME280;13479;49.044;8.716;2023-06-19T13:00:33;98783.34;;;32.69;35.56
25610;BME280;13479;49.044;8.716;2023-06-19T13:02:58;98789.00;;;32.38;36.34
25610;BME280;13479;49.044;8.716;2023-06-19T13:05:23;98777.50;;;32.36;35.87
25610;BME280;13479;49.044;8.716;2023-06-19T13:07:48;98772.00;;;32.30;36.03
25610;BME280;13479;49.044;8.716;2023-06-19T13:10:14;98773.09;;;32.34;35.12
25610;BME280;13479;49.044;8.716;2023-06-19T13:12:39;98779.16;;;32.21;35.38
25610;BME280;13479;49.044;8.716;2023-06-19T13:15:05;98777.56;;;32.10;36.13
25610;BME280;13479;49.044;8.716;2023-06-19T13:17:30;98776.44;;;32.16;35.83
25610;BME280;13479;49.044;8.716;2023-06-19T13:19:56;98766.53;;;32.15;35.75
25610;BME280;13479;49.044;8.716;2023-06-19T13:22:21;98771.22;;;32.19;35.50
25610;BME280;13479;49.044;8.716;2023-06-19T13:24:47;98764.63;;;32.26;35.59
25610;BME280;13479;49.044;8.716;2023-06-19T13:27:12;98758.75;;;32.43;35.41
25610;BME280;13479;49.044;8.716;2023-06-19T13:29:37;98774.44;;;32.37;35.10
25610;BME280;13479;49.044;8.716;2023-06-19T13:32:05;98777.50;;;32.36;35.16
25610;BME280;13479;49.044;8.716;2023-06-19T13:34:30;98766.25;;;32.22;35.39
25610;BME280;13479;49.044;8.716;2023-06-19T13:36:55;98763.78;;;32.30;35.23
25610;BME280;13479;49.044;8.716;2023-06-19T13:39:20;98771.22;;;32.19;35.25
25610;BME280;13479;49.044;8.716;2023-06-19T13:41:46;98764.31;;;32.32;35.31
25610;BME280;13479;49.044;8.716;2023-06-19T13:44:12;98765.72;;;32.19;35.52
25610;BME280;13479;49.044;8.716;2023-06-19T13:46:37;98752.84;;;32.10;35.51
25610;BME280;13479;49.044;8.716;2023-06-19T13:49:03;98758.31;;;32.15;35.99
25610;BME280;13479;49.044;8.716;2023-06-19T13:51:28;98743.53;;;32.06;35.88
25610;BME280;13479;49.044;8.716;2023-06-19T13:53:53;98748.22;;;32.05;35.89
25610;BME280;13479;49.044;8.716;2023-06-19T13:56:19;98738.63;;;32.02;35.57
25610;BME280;13479;49.044;8.716;2023-06-19T13:58:45;98737.75;;;32.12;36.11
25610;BME280;13479;49.044;8.716;2023-06-19T14:01:10;98743.75;;;32.25;35.21
25610;BME280;13479;49.044;8.716;2023-06-19T14:03:37;98740.31;;;32.48;35.38
25610;BME280;13479;49.044;8.716;2023-06-19T14:06:03;98739.47;;;32.53;35.18
25610;BME280;13479;49.044;8.716;2023-06-19T14:08:29;98741.81;;;32.70;35.34
25610;BME280;13479;49.044;8.716;2023-06-19T14:10:54;98733.88;;;32.69;35.48
25610;BME280;13479;49.044;8.716;2023-06-19T14:13:20;98745.44;;;32.65;35.43
25610;BME280;13479;49.044;8.716;2023-06-19T14:15:45;98747.16;;;32.56;35.19
25610;BME280;13479;49.044;8.716;2023-06-19T14:18:10;98746.59;;;32.54;35.30
25610;BME280;13479;49.044;8.716;2023-06-19T14:20:36;98751.25;;;32.59;34.21
25610;BME280;13479;49.044;8.716;2023-06-19T14:23:01;98752.97;;;32.49;34.29
25610;BME280;13479;49.044;8.716;2023-06-19T14:25:26;98748.66;;;32.73;34.10
25610;BME280;13479;49.044;8.716;2023-06-19T14:27:52;98749.72;;;32.82;33.86
25610;BME280;13479;49.044;8.716;2023-06-19T14:30:18;98752.38;;;32.98;32.52
25610;BME280;13479;49.044;8.716;2023-06-19T14:32:43;98741.69;;;33.25;33.16
25610;BME280;13479;49.044;8.716;2023-06-19T14:35:09;98756.22;;;33.31;32.48
25610;BME280;13479;49.044;8.716;2023-06-19T14:37:35;98746.47;;;33.44;32.99
25610;BME280;13479;49.044;8.716;2023-06-19T14:40:00;98746.59;;;33.58;31.75
25610;BME280;13479;49.044;8.716;2023-06-19T14:42:26;98742.81;;;33.78;31.49
25610;BME280;13479;49.044;8.716;2023-06-19T14:44:51;98732.81;;;33.87;31.83
25610;BME280;13479;49.044;8.716;2023-06-19T14:47:16;98738.59;;;33.86;32.40
25610;BME280;13479;49.044;8.716;2023-06-19T14:49:42;98732.72;;;33.68;31.90
25610;BME280;13479;49.044;8.716;2023-06-19T14:52:07;98740.22;;;33.63;32.67
25610;BME280;13479;49.044;8.716;2023-06-19T14:54:33;98726.56;;;33.52;32.51
25610;BME280;13479;49.044;8.716;2023-06-19T14:56:58;98721.25;;;33.37;32.65
25610;BME280;13479;49.044;8.716;2023-06-19T14:59:24;98724.13;;;33.21;32.60
25610;BME280;13479;49.044;8.716;2023-06-19T15:01:49;98722.00;;;33.13;32.52
25610;BME280;13479;49.044;8.716;2023-06-19T15:04:14;98712.88;;;33.18;32.99
25610;BME280;13479;49.044;8.716;2023-06-19T15:06:40;98711.56;;;33.10;33.14
25610;BME280;13479;49.044;8.716;2023-06-19T15:09:05;98708.59;;;32.67;32.95
25610;BME280;13479;49.044;8.716;2023-06-19T15:11:31;98710.25;;;32.68;33.00
25610;BME280;13479;49.044;8.716;2023-06-19T15:13:56;98703.59;;;32.74;33.08
25610;BME280;13479;49.044;8.716;2023-06-19T15:16:21;98688.53;;;32.66;33.50
25610;BME280;13479;49.044;8.716;2023-06-19T15:18:48;98679.41;;;32.76;33.48
25610;BME280;13479;49.044;8.716;2023-06-19T15:21:13;98688.34;;;32.57;33.63
25610;BME280;13479;49.044;8.716;2023-06-19T15:23:39;98687.44;;;32.67;33.71
25610;BME280;13479;49.044;8.716;2023-06-19T15:26:04;98688.22;;;32.73;33.74
25610;BME280;13479;49.044;8.716;2023-06-19T15:28:32;98688.53;;;32.66;33.89
25610;BME280;13479;49.044;8.716;2023-06-19T15:30:58;98682.78;;;32.68;33.50
25610;BME280;13479;49.044;8.716;2023-06-19T15:33:23;98679.09;;;32.77;33.77
25610;BME280;13479;49.044;8.716;2023-06-19T15:35:48;98687.03;;;32.89;33.50
25610;BME280;13479;49.044;8.716;2023-06-19T15:38:14;98688.28;;;33.02;33.52
25610;BME280;13479;49.044;8.716;2023-06-19T15:40:40;98685.66;;;33.16;32.91
25610;BME280;13479;49.044;8.716;2023-06-19T15:43:05;98681.69;;;33.27;32.71
25610;BME280;13479;49.044;8.716;2023-06-19T15:45:30;98690.03;;;33.17;32.83
25610;BME280;13479;49.044;8.716;2023-06-19T15:47:56;98694.97;;;33.20;33.19
25610;BME280;13479;49.044;8.716;2023-06-19T15:50:21;98692.53;;;33.19;33.10
25610;BME280;13479;49.044;8.716;2023-06-19T15:52:46;98690.25;;;33.26;32.63
25610;BME280;13479;49.044;8.716;2023-06-19T15:55:13;98698.63;;;33.40;32.32
25610;BME280;13479;49.044;8.716;2023-06-19T15:57:38;98693.03;;;33.50;32.91
25610;BME280;13479;49.044;8.716;2023-06-19T16:00:05;98691.16;;;33.70;32.51
25610;BME280;13479;49.044;8.716;2023-06-19T16:02:30;98697.03;;;33.87;32.49
25610;BME280;13479;49.044;8.716;2023-06-19T16:04:56;98687.59;;;33.94;32.14
25610;BME280;13479;49.044;8.716;2023-06-19T16:07:21;98700.31;;;33.90;32.78
25610;BME280;13479;49.044;8.716;2023-06-19T16:09:47;98692.56;;;33.67;33.30
25610;BME280;13479;49.044;8.716;2023-06-19T16:12:12;98682.50;;;33.57;33.49
25610;BME280;13479;49.044;8.716;2023-06-19T16:14:38;98676.00;;;33.48;33.41
25610;BME280;13479;49.044;8.716;2023-06-19T16:17:03;98669.56;;;33.34;33.94
25610;BME280;13479;49.044;8.716;2023-06-19T16:19:28;98661.16;;;33.20;33.90
25610;BME280;13479;49.044;8.716;2023-06-19T16:21:54;98655.38;;;32.92;33.72
25610;BME280;13479;49.044;8.716;2023-06-19T16:24:19;98644.50;;;32.76;34.35
25610;BME280;13479;49.044;8.716;2023-06-19T16:26:45;98649.28;;;32.60;35.01
25610;BME280;13479;49.044;8.716;2023-06-19T16:29:10;98642.75;;;32.56;34.57
25610;BME280;13479;49.044;8.716;2023-06-19T16:31:38;98635.38;;;32.52;34.88
25610;BME280;13479;49.044;8.716;2023-06-19T16:34:03;98637.09;;;32.42;35.01
25610;BME280;13479;49.044;8.716;2023-06-19T16:36:30;98636.25;;;32.42;34.76
25610;BME280;13479;49.044;8.716;2023-06-19T16:38:56;98639.63;;;32.33;34.95
25610;BME280;13479;49.044;8.716;2023-06-19T16:41:21;98643.47;;;32.32;35.31
25610;BME280;13479;49.044;8.716;2023-06-19T16:43:46;98638.72;;;32.43;35.38
25610;BME280;13479;49.044;8.716;2023-06-19T16:46:12;98650.28;;;32.40;35.07
25610;BME280;13479;49.044;8.716;2023-06-19T16:48:37;98644.91;;;32.19;35.83
25610;BME280;13479;49.044;8.716;2023-06-19T16:51:02;98645.47;;;32.16;36.75
25610;BME280;13479;49.044;8.716;2023-06-19T16:53:29;98638.03;;;32.22;35.57
25610;BME280;13479;49.044;8.716;2023-06-19T16:55:55;98641.94;;;32.11;36.04
25610;BME280;13479;49.044;8.716;2023-06-19T16:58:22;98643.06;;;32.04;36.50
25610;BME280;13479;49.044;8.716;2023-06-19T17:00:49;98635.72;;;31.95;36.99
25610;BME280;13479;49.044;8.716;2023-06-19T17:03:14;98638.53;;;31.84;37.09
25610;BME280;13479;49.044;8.716;2023-06-19T17:05:39;98632.47;;;31.87;36.86